»·PEaware :: SKW5413 KEGE-KDEN

SKW5413 :: KEGE-KDEN

FLIGHT INFORMATION

Flight Status: Arrived
Operator:
SkyWest Airlines
More flights by this operator :: More flights under this callsign
Pilot: Tanner C. (11250)
Aircraft: EMBRAER EMB-170/175
(E170)
More flights by this aircraft type
Origin: KEGE Eagle Co Regl
United States
Destination: KDEN Denver Intl
United States
More flights between these airports :: More routes between these airports
Route: +GYPSM5 RLG FRNCH FRNCH3
File this flight plan on PilotEdge
Remarks:
Altitude:
(Current/Filed)
23,000ft
Speed:
(Current/Filed)
400kts
Departed: 13-May-18 07:38 PM
Arrived: 13-May-18 08:14 PM
Distance/Time
Traveled:
105nm/0:36
Distance/Time
To Go:
Arrived

Flight Plot

Page will automatically refresh every two minutes.

Flight plan parsing failed; only flown route is shown


Map Options




Map Legend


Flown Route
Filed Route
Departure Airport
Arrival Airport
Navaid (VOR, NDB)
Fix

Horizontal Profiles

Position Reports

Time Latitude Longitude Heading Altitude Ground
Speed
13-May-18 19:17 39.640856 -106.913074 171 6552ft 0kts
13-May-18 19:18 39.640856 -106.913074 171 6552ft 0kts
13-May-18 19:19 39.640856 -106.913074 171 6552ft 0kts
13-May-18 19:20 39.640856 -106.913074 171 6552ft 0kts
13-May-18 19:21 39.640856 -106.913074 171 6552ft 0kts
13-May-18 19:22 39.640856 -106.913074 171 6552ft 0kts
13-May-18 19:23 39.640856 -106.913074 171 6552ft 0kts
13-May-18 19:24 39.640856 -106.913074 171 6552ft 0kts
13-May-18 19:25 39.640856 -106.913074 171 6552ft 0kts
13-May-18 19:26 39.640856 -106.913074 171 6552ft 0kts
13-May-18 19:27 39.640856 -106.913074 171 6552ft 0kts
13-May-18 19:28 39.640856 -106.913074 171 6552ft 0kts
13-May-18 19:29 39.640856 -106.913074 171 6552ft 0kts
13-May-18 19:30 39.640856 -106.913074 171 6552ft 0kts
13-May-18 19:31 39.641162 -106.913139 119 6552ft 0kts
13-May-18 19:32 39.641536 -106.911527 64 6552ft 23kts
13-May-18 19:33 39.643264 -106.902427 79 6552ft 13kts
13-May-18 19:34 39.643299 -106.902242 72 6552ft 0kts
13-May-18 19:35 39.643299 -106.902242 72 6552ft 0kts
13-May-18 19:36 39.643299 -106.902242 72 6552ft 0kts
13-May-18 19:37 39.644345 -106.902765 261 6553ft 13kts
13-May-18 19:38 39.643670 -106.908942 262 6553ft 105kts
13-May-18 19:39 39.622338 -106.962562 223 8948ft 216kts
13-May-18 19:40 39.616705 -107.037170 322 12036ft 296kts
13-May-18 19:41 39.705719 -107.065898 1 14835ft 382kts
13-May-18 19:42 39.793268 -106.992969 52 16117ft 399kts
13-May-18 19:43 39.847949 -106.863765 66 19154ft 431kts
13-May-18 19:44 39.895743 -106.734283 66 20934ft 388kts
13-May-18 19:45 39.943395 -106.604531 66 21113ft 419kts
13-May-18 19:46 39.992954 -106.470267 60 21093ft 425kts
13-May-18 19:47 40.078704 -106.366014 37 21136ft 426kts
13-May-18 19:48 40.161600 -106.281501 37 21125ft 426kts
13-May-18 19:49 40.229829 -106.212123 37 21151ft 426kts
13-May-18 19:50 40.322666 -106.117378 37 21184ft 422kts
13-May-18 19:51 40.410100 -106.018145 63 21190ft 421kts
13-May-18 19:52 40.424827 -105.878068 98 21182ft 383kts
13-May-18 19:53 40.406887 -105.751663 101 21153ft 383kts
13-May-18 19:54 40.384480 -105.609090 107 21104ft 400kts
13-May-18 19:55 40.361258 -105.466743 112 21091ft 397kts
13-May-18 19:56 40.313001 -105.355851 106 19921ft 392kts
13-May-18 19:57 40.304479 -105.219012 110 18162ft 381kts
13-May-18 19:58 40.254187 -105.106913 129 16465ft 353kts
13-May-18 19:59 40.200767 -105.001713 128 14955ft 344kts
13-May-18 20:00 40.148970 -104.899524 127 13446ft 335kts
13-May-18 20:01 40.098296 -104.799991 125 11936ft 325kts
13-May-18 20:02 40.051412 -104.708082 122 11009ft 277kts
13-May-18 20:03 40.013474 -104.633675 122 11057ft 235kts
13-May-18 20:04 39.976753 -104.562034 119 10989ft 245kts
13-May-18 20:05 39.946265 -104.499897 176 9757ft 209kts
13-May-18 20:06 39.918339 -104.542239 267 9271ft 179kts
13-May-18 20:07 39.925211 -104.609343 325 10998ft 239kts
13-May-18 20:08 39.970096 -104.575248 89 11020ft 255kts
13-May-18 20:09 39.955093 -104.487912 144 9812ft 255kts
13-May-18 20:10 39.899141 -104.481372 217 7908ft 216kts
13-May-18 20:11 39.876213 -104.535319 272 6629ft 166kts
13-May-18 20:12 39.876944 -104.592650 273 5839ft 151kts
13-May-18 20:13 39.877393 -104.640215 270 5442ft 60kts
13-May-18 20:14 39.876402 -104.646535 236 5441ft 0kts
13-May-18 20:15 39.875822 -104.650609 270 5441ft 29kts
13-May-18 20:16 39.875845 -104.661614 248 5441ft 23kts
13-May-18 20:17 39.870962 -104.663845 270 5441ft 14kts
13-May-18 20:18 39.873444 -104.666012 271 5441ft 7kts
13-May-18 20:19 39.873450 -104.666310 272 5441ft 0kts
13-May-18 20:20 39.873450 -104.666310 272 5441ft 0kts

Navigation Log

Ident Type
Flight plan parsing failed, navigation log unavailable